• Join FlightAware (Why Join?)
  • Login
  • US Flag 
06:29AM EDT


 

Airport Tracker/Info


-or-


 

Live Flight TrackerFlight Track Log ✈ AWE1705 ✈ 08-May-2014 ✈ KPHL - KPIT

Flight Track Log - Related Links

Times and Time Zones

All times are in EDT time to prevent confusion due to time zone crossing. See the AWE1705 flight status page for this flight to view local times or setup timezone preferences in your user account.

Time Position Orientation Groundspeed Altitude Reporting Facility
EDT Latitude Longitude Course Direction KTS MPH feet Rate Location/Type
05:00PM 39.8833 -75.2167 270° West 133 153 800  Level Philadelphia TRACON
05:01PM 39.8833 -75.1833 90° East 163 188 1,600 1,740 Climbing Philadelphia TRACON
05:02PM 39.9167 -75.1167 57° Northeast 234 269 3,700 2,160 Climbing Philadelphia TRACON
05:03PM 39.9000 -75.5696 270° West  Level FlightAware Approximate
05:03PM 39.9500 -75.1667 311° West 249 287 6,200  Level Philadelphia TRACON
05:04PM 39.9141 -75.6822 258° West  Level FlightAware Approximate
05:05PM 39.9000 -75.7967 270° West  Level FlightAware Approximate
05:05PM 39.9389 -75.3544 266° West 282 325 10,900  Level New York Center
05:06PM 39.9000 -75.9131 270° West  Level FlightAware Approximate
05:06PM 39.9325 -75.4678 266° West 313 360 12,000  Level New York Center
05:07PM 39.9367 -75.5683 273° West 318 366 12,000  Level New York Center
05:08PM 39.9650 -75.6894 287° West 313 360 12,000 600 Level New York Center
05:09PM 39.9900 -75.7886 288° West 320 368 13,300 1,980 Climbing New York Center
05:10PM 39.9933 -75.9081 272° West 327 376 16,000 2,340 Climbing New York Center
05:11PM 39.9919 -76.0328 269° West 341 392 18,100 2,040 Climbing New York Center
05:12PM 39.9964 -76.1658 273° West 365 420 20,100 1,920 Climbing New York Center
05:13PM 39.9933 -76.3200 269° West 378 435 22,000 900 Climbing New York Center
05:14PM 39.9911 -76.4556 269° West 384 442 22,000  Level New York Center
05:15PM 39.9906 -76.5964 270° West 384 442 22,000  Level New York Center
05:16PM 39.9900 -76.7317 270° West 384 442 22,000  Level New York Center
05:17PM 39.9869 -76.8725 268° West 384 442 22,000  Level New York Center
05:18PM 39.9858 -77.0158 269° West 390 449 22,000  Level New York Center
05:19PM 39.9819 -77.1619 268° West 401 461 22,000  Level New York Center
05:20PM 39.9825 -77.3083 270° West 406 467 22,000  Level New York Center
05:21PM 39.9806 -77.4544 269° West 406 467 22,000  Level New York Center
05:21PM 39.9792 -77.5047 268° West 403 464 22,000  Level Cleveland Center
05:23PM 39.9767 -77.6822 269° West 405 466 22,000  Level Cleveland Center
05:24PM 39.9733 -77.8283 268° West 405 466 22,000  Level Cleveland Center
05:25PM 39.9728 -77.9758 270° West 406 467 22,000  Level Cleveland Center
05:26PM 39.9919 -78.1211 280° West 408 470 22,000  Level Cleveland Center
05:27PM 40.0139 -78.2839 280° West 406 467 22,000  Level Cleveland Center
05:28PM 40.0331 -78.4261 280° West 404 465 22,000  Level Cleveland Center
05:29PM 40.0519 -78.5706 280° West 404 465 22,000  Level Cleveland Center
05:30PM 40.0706 -78.7133 280° West 404 465 22,000  Level Cleveland Center
05:31PM 40.0883 -78.8589 279° West 405 466 22,000 -900 Level Cleveland Center
05:32PM 40.1114 -79.0308 280° West 403 464 20,200 -1,920 Descending Cleveland Center
05:33PM 40.1289 -79.1669 280° West 386 444 18,100 -2,040 Descending Cleveland Center
05:34PM 40.1453 -79.3014 279° West 364 419 16,100 -1,860 Descending Cleveland Center
05:35PM 40.1603 -79.4275 279° West 354 407 14,300 -1,800 Descending Cleveland Center
05:36PM 40.1756 -79.5528 279° West 352 405 12,400 -1,680 Descending Cleveland Center
05:37PM 40.2031 -79.6708 287° West 347 399 10,900 -1,200 Descending Cleveland Center
05:38PM 40.2672 -79.7528 316° Northwest 331 381 10,000 -1,320 Descending Cleveland Center
05:39PM 40.3328 -79.8344 316° Northwest 276 318 8,200 -1,800 Descending Cleveland Center
05:40PM 40.3844 -79.8989 316° Northwest 262 302 6,400 -1,500 Descending Cleveland Center
05:41PM 40.4353 -79.9628 316° Northwest 260 299 5,100 -1,320 Descending Cleveland Center
05:42PM 40.4806 -80.0236 314° West 241 277 3,700 -1,200 Descending Cleveland Center
05:43PM 40.4828 -80.1083 272° West 198 228 2,600 -900 Descending Cleveland Center
05:44PM 40.4844 -80.1594 272° West 162 186 1,900 -720 Descending Cleveland Center
05:46PM 40.4833 -80.2167 323° Northwest  Level FlightAware Approximate
05:53PM 40.4914 -80.2327 323° Northwest  Level Estimated